Aeroporto :
LOGIN :

Iscrizione | Disclaimer

   EN    FR    IT 

 










Sommario :    VFR   VFR Marginale   IFR   IFR Intensivo   IFR Molto Intensivo
Visibilità : 
Base nubi : 
>= 8 km
>= 3000ft
5 / 8 km
1000 / 3000 ft
1500m / 5 km
500 / 1000 ft
800 / 1500m
200 / 500 ft
< 800m
< 200 ft
Simboli :   Temporali  Nebbia  Neve Forte  Precipitazioni Forti  Vento > 20 kt
SIGMETs :   Varie  Temporali  Ghiacco  Turbolenza  Onda orograficha  Ceneri Vulcaniche






- Altitudine del aeroporto : 2026 ft
- Codice IATA : TOJ


LETO - Madrid Torrejon

ULTIMO METAR :
  • 020600Z 23012KT 200V260 9999 BKN015 07/05 Q1009 NOSIG

METARs OBSOLETI :
  • 020530Z 23009KT 200V260 9999 BKN015 07/05 Q1009 NOSIG
  • 020500Z 22008KT 9999 BKN015 06/05 Q1009 NOSIG
  • 020430Z 22009KT 9999 BKN015 07/05 Q1010 NOSIG
  • 012100Z 23007KT 9999 BKN050 09/04 Q1014 NOSIG
  • 020400Z 21005KT 170V250 9999 BKN015 06/05 Q1010 NOSIG
  • 020330Z 19006KT 9999 SCT015 06/05 Q1010 NOSIG
  • 020300Z 17006KT 9999 SCT015 06/04 Q1011 NOSIG
  • 020230Z 17004KT 140V210 9999 SCT017 06/04 Q1011 NOSIG
  • 020200Z 15006KT 9999 SCT020 05/03 Q1012 NOSIG
  • 020130Z 15006KT 9999 SCT020 06/04 Q1012 NOSIG

TAF TAF LETO
Valido dal 02 a 06 ore il 03 a 06 ore UTC


020500Z 0206/0306 23010KT 9999 FEW040 TX10/0215Z TN01/0306Z
TEMPO 0208/0222 23026G36KT
BECMG 0222/0224 VRB05KT
PROB40
TEMPO 0206/0212 BKN008
PROB30
TEMPO 0206/0215 4000 RA BKN014
TEMPO 0215/0221 3000 RA SHRA BKN014 SCT040TCU
PROB30
TEMPO 0216/0220 2000 TSRA FEW040CB



MetMap, La meteo Aeronautica in un colpo d'occhio ! - Copyright ORBIFLY Dicembre 2007 - Disclaimer

ORBIFLY MET'MAP TEAM :

Programmazione e sviluppo : Alexandra Zaïnal
Concezione : Baudouin d'Aumeries
Supporto tecnico e logistico : Manuel Goepfert
Aiuto : Marc-Olivier Méhu
Aiuto per la traduzione : Arnaldo La Scala




FONTI E CREDITI :

   NOAA